Time;durP1;ratioP1;P1;durP2;ratioP2;P2;SDS_P1;SDS_P2;PMS_P1;PMS_P2;Temp;Humidity;BMP_temperature;BMP_pressure;BME280_temperature;BME280_humidity;BME280_pressure;Samples;Min_cycle;Max_cycle;Signal;HPM_P1;HPM_P2
2022/05/23 00:01:34;;;;;;;4.53;2.42;;;;;;;14.94;54.07;101241.84;5090372;28;20036;-42
2022/05/23 00:04:00;;;;;;;4.47;2.60;;;;;;;14.91;54.17;101230.59;5084652;28;20042;-43
2022/05/23 00:06:25;;;;;;;5.00;3.05;;;;;;;14.88;54.07;101236.97;5085714;28;20115;-44
2022/05/23 00:08:51;;;;;;;6.97;3.22;;;;;;;14.84;54.24;101226.66;5075734;28;20115;-48
2022/05/23 00:11:19;;;;;;;6.35;3.30;;;;;;;14.82;54.40;101233.91;5081034;28;20039;-48
2022/05/23 00:13:46;;;;;;;4.28;3.33;;;;;;;14.81;54.35;101222.44;5084223;28;20031;-47
2022/05/23 00:16:18;;;;;;;6.32;3.53;;;;;;;14.80;54.51;101217.25;5083791;28;20020;-46
2022/05/23 00:18:44;;;;;;;6.70;4.22;;;;;;;14.78;54.49;101212.03;5080503;28;20029;-45
2022/05/23 00:21:09;;;;;;;7.40;4.78;;;;;;;14.75;54.61;101214.88;5083595;28;20091;-47
2022/05/23 00:23:36;;;;;;;7.55;4.10;;;;;;;14.71;54.55;101211.59;5087992;28;21298;-45
2022/05/23 00:26:01;;;;;;;6.35;4.10;;;;;;;14.73;54.71;101211.53;5087841;28;20566;-47
2022/05/23 00:28:27;;;;;;;8.90;4.57;;;;;;;14.71;54.83;101205.47;5085014;28;20073;-48
2022/05/23 00:30:52;;;;;;;7.75;3.78;;;;;;;14.69;54.95;101210.03;5086987;28;20129;-45
2022/05/23 00:36:01;;;;;;;10.52;3.67;;;;;;;14.65;54.73;101209.38;5087486;28;20089;-44
2022/05/23 00:38:27;;;;;;;8.13;4.43;;;;;;;14.65;54.86;101204.06;5086964;28;20031;-45
2022/05/23 00:44:01;;;;;;;5.88;4.22;;;;;;;14.64;54.50;101200.56;5081020;28;20134;-44
2022/05/23 00:46:27;;;;;;;8.68;4.00;;;;;;;14.62;54.53;101210.41;5085163;28;20031;-47
2022/05/23 00:48:52;;;;;;;8.02;4.07;;;;;;;14.59;54.63;101210.63;5091263;28;20037;-46
2022/05/23 00:51:19;;;;;;;7.75;4.45;;;;;;;14.59;54.51;101213.28;5079976;28;20031;-46
2022/05/23 00:53:51;;;;;;;6.05;3.60;;;;;;;14.57;54.47;101217.81;5088867;28;20069;-46
2022/05/23 00:56:19;;;;;;;4.70;3.38;;;;;;;14.50;54.56;101213.03;5086463;28;20035;-45
2022/05/23 00:58:51;;;;;;;5.38;3.65;;;;;;;14.47;54.83;101219.38;5084784;28;20077;-46
2022/05/23 01:01:22;;;;;;;5.78;3.67;;;;;;;14.47;54.65;101214.06;5086318;28;20032;-47
2022/05/23 01:03:48;;;;;;;8.63;3.53;;;;;;;14.48;54.81;101223.72;5088649;28;20027;-44
2022/05/23 01:06:14;;;;;;;7.20;4.10;;;;;;;14.49;54.70;101220.13;5081925;28;20084;-46
2022/05/23 01:08:40;;;;;;;170.20;50.92;;;;;;;14.50;54.80;101220.97;5088459;28;20028;-47
2022/05/23 01:11:08;;;;;;;8.63;4.18;;;;;;;14.49;54.81;101220.13;5083723;28;20032;-45
2022/05/23 01:13:33;;;;;;;7.20;4.15;;;;;;;14.46;55.02;101215.03;5083323;28;20027;-46
2022/05/23 01:15:59;;;;;;;7.00;3.50;;;;;;;14.45;54.69;101210.66;5084847;28;20085;-46
2022/05/23 01:18:24;;;;;;;161.50;51.80;;;;;;;14.43;54.75;101209.97;5085127;28;20416;-46
2022/05/23 01:20:55;;;;;;;6.57;3.72;;;;;;;14.40;54.92;101211.00;5085719;28;20454;-45
2022/05/23 01:23:39;;;;;;;6.10;4.13;;;;;;;14.33;54.99;101210.53;5088191;28;20039;-44
2022/05/23 01:26:04;;;;;;;8.80;3.70;;;;;;;14.31;54.97;101206.31;5081604;28;20631;-45
2022/05/23 01:28:34;;;;;;;7.93;4.95;;;;;;;14.29;54.87;101198.47;5079505;28;20448;-47
2022/05/23 01:31:00;;;;;;;8.00;3.97;;;;;;;14.27;55.08;101188.94;5083732;28;20035;-47
2022/05/23 01:33:25;;;;;;;5.10;3.70;;;;;;;14.25;54.97;101188.19;5083544;28;20036;-48
2022/05/23 01:35:50;;;;;;;6.43;3.53;;;;;;;14.24;54.98;101190.00;5081553;28;20032;-46
2022/05/23 01:38:16;;;;;;;6.15;3.30;;;;;;;14.21;55.04;101187.53;5083877;28;20032;-46
2022/05/23 01:40:41;;;;;;;7.40;3.55;;;;;;;14.20;54.69;101185.00;5078628;28;20035;-48
2022/05/23 01:43:07;;;;;;;6.80;3.40;;;;;;;14.18;54.75;101190.38;5084587;28;20569;-45
2022/05/23 01:45:37;;;;;;;4.72;3.28;;;;;;;14.14;54.85;101184.47;5080174;28;20027;-46
2022/05/23 01:48:04;;;;;;;6.95;3.42;;;;;;;14.11;54.54;101186.47;5080397;28;20055;-49
2022/05/23 01:50:30;;;;;;;4.38;3.30;;;;;;;14.08;54.64;101184.00;5079935;28;20036;-44
2022/05/23 01:52:58;;;;;;;5.63;3.65;;;;;;;14.05;54.45;101190.38;5083986;28;20035;-44
2022/05/23 01:55:24;;;;;;;6.13;3.80;;;;;;;14.03;54.46;101192.25;5085605;28;20062;-46
2022/05/23 01:57:50;;;;;;;5.32;3.67;;;;;;;13.99;54.53;101199.53;5068254;28;20044;-44
2022/05/23 02:03:01;;;;;;;5.88;3.15;;;;;;;13.96;54.31;101194.44;5080159;28;20043;-46
2022/05/23 02:05:27;;;;;;;7.22;3.30;;;;;;;13.94;54.41;101188.41;5092578;28;20533;-47
2022/05/23 02:07:53;;;;;;;6.40;3.45;;;;;;;13.91;54.52;101190.41;5083321;28;20341;-46
2022/05/23 02:10:19;;;;;;;5.18;3.03;;;;;;;13.87;54.45;101187.97;5076443;28;20059;-47
2022/05/23 02:12:45;;;;;;;5.07;3.20;;;;;;;13.85;54.12;101173.13;5079252;28;20425;-45
2022/05/23 02:15:11;;;;;;;6.28;3.30;;;;;;;13.82;54.20;101179.47;5078261;28;20047;-45
2022/05/23 02:17:37;;;;;;;5.85;3.63;;;;;;;13.81;53.97;101177.75;5084795;28;20498;-47
2022/05/23 02:20:04;;;;;;;3.83;3.00;;;;;;;13.79;54.23;101166.44;5082664;28;20036;-46
2022/05/23 02:22:30;;;;;;;5.00;3.25;;;;;;;13.77;54.24;101167.50;5084066;28;20035;-44
2022/05/23 02:24:55;;;;;;;6.45;3.63;;;;;;;13.77;54.07;101167.50;5078204;28;20024;-46
2022/05/23 02:27:21;;;;;;;4.70;3.22;;;;;;;13.76;54.11;101174.59;5081654;28;20077;-47
2022/05/23 02:29:47;;;;;;;7.50;3.53;;;;;;;13.74;54.23;101170.31;5079474;28;20032;-47
2022/05/23 02:32:12;;;;;;;6.47;3.22;;;;;;;13.73;54.20;101174.78;5082506;28;20032;-44
2022/05/23 02:34:38;;;;;;;6.68;3.40;;;;;;;13.70;54.16;101173.16;5090377;28;20487;-46
2022/05/23 02:37:03;;;;;;;5.20;3.28;;;;;;;13.67;54.17;101170.72;5087714;28;20028;-48
2022/05/23 02:39:29;;;;;;;7.35;3.15;;;;;;;13.62;54.27;101164.88;5090985;28;20032;-48
2022/05/23 02:41:55;;;;;;;5.00;3.33;;;;;;;13.59;54.32;101170.34;5090404;28;20032;-47
2022/05/23 02:44:20;;;;;;;5.20;3.70;;;;;;;13.52;54.67;101156.69;5086187;28;20554;-47
2022/05/23 02:46:46;;;;;;;6.95;3.88;;;;;;;13.49;54.62;101161.31;5086331;28;20063;-44
2022/05/23 02:49:12;;;;;;;4.82;3.08;;;;;;;13.49;54.60;101161.31;5091924;28;20056;-44
2022/05/23 02:51:38;;;;;;;5.28;3.40;;;;;;;13.47;54.70;101157.94;5088112;28;20039;-45
2022/05/23 02:54:05;;;;;;;7.32;3.22;;;;;;;13.46;54.57;101156.22;5086768;28;20692;-45
2022/05/23 02:56:31;;;;;;;5.60;3.30;;;;;;;13.45;54.74;101159.81;5084976;28;20130;-47
2022/05/23 02:58:56;;;;;;;8.20;3.80;;;;;;;13.44;54.55;101158.13;5082427;28;20115;-44
2022/05/23 03:01:22;;;;;;;6.57;3.80;;;;;;;13.41;54.65;101154.72;5092787;28;20399;-48
2022/05/23 03:03:47;;;;;;;5.32;3.33;;;;;;;13.42;54.98;101155.56;5089530;27;20125;-46
2022/05/23 03:06:13;;;;;;;6.80;3.67;;;;;;;13.43;54.92;101151.13;5080125;28;20081;-45
2022/05/23 03:08:39;;;;;;;6.13;3.70;;;;;;;13.44;54.84;101155.47;5084977;28;20055;-47
2022/05/23 03:11:07;;;;;;;6.82;3.28;;;;;;;13.44;55.01;101152.81;5081762;28;20093;-46
2022/05/23 03:13:34;;;;;;;5.00;3.47;;;;;;;13.41;54.92;101153.88;5090042;28;20381;-46
2022/05/23 03:16:01;;;;;;;5.78;3.47;;;;;;;13.38;55.06;101152.25;5091887;28;20120;-48
2022/05/23 03:18:26;;;;;;;6.18;3.45;;;;;;;13.39;55.08;101153.09;5090771;28;20033;-46
2022/05/23 03:20:57;;;;;;;4.40;3.42;;;;;;;13.39;54.95;101161.03;5090924;28;20061;-45
2022/05/23 03:28:51;;;;;;;5.07;3.15;;;;;;;13.31;55.16;101165.97;5088566;28;20043;-45
2022/05/23 03:31:17;;;;;;;4.90;3.40;;;;;;;13.32;55.32;101171.13;5086208;28;20028;-46
2022/05/23 03:33:42;;;;;;;5.78;3.70;;;;;;;13.35;55.12;101176.22;5083914;28;20059;-48
2022/05/23 03:36:08;;;;;;;4.88;3.42;;;;;;;13.36;55.22;101174.41;5085013;28;20028;-47
2022/05/23 03:38:35;;;;;;;7.10;3.85;;;;;;;13.31;55.17;101161.50;5091735;28;20031;-47
2022/05/23 03:41:09;;;;;;;4.15;3.70;;;;;;;13.29;55.27;101166.03;5089682;28;20045;-47
2022/05/23 03:43:35;;;;;;;8.50;3.65;;;;;;;13.28;55.38;101156.41;5084604;28;20123;-45
2022/05/23 03:46:09;;;;;;;6.88;3.90;;;;;;;13.30;55.43;101162.44;5072541;28;20035;-47
2022/05/23 03:48:36;;;;;;;8.23;3.90;;;;;;;13.30;55.33;101161.59;5080369;28;20040;-46
2022/05/23 03:51:02;;;;;;;8.63;4.20;;;;;;;13.28;55.68;101166.97;5082647;28;20028;-47
2022/05/23 03:53:29;;;;;;;5.28;3.90;;;;;;;13.29;55.67;101165.19;5093805;28;20345;-45
2022/05/23 03:55:55;;;;;;;6.50;3.60;;;;;;;13.31;55.67;101160.66;5079792;28;20043;-45
2022/05/23 03:58:20;;;;;;;4.82;3.47;;;;;;;13.35;55.64;101159.50;5085171;28;20468;-47
2022/05/23 04:00:49;;;;;;;5.53;3.38;;;;;;;13.38;55.71;101160.19;5079671;28;20028;-48
2022/05/23 04:03:16;;;;;;;6.47;4.22;;;;;;;13.43;55.87;101164.34;5086867;28;20383;-49
2022/05/23 04:05:43;;;;;;;5.35;3.53;;;;;;;13.44;55.62;101169.56;5084941;28;20032;-46
2022/05/23 04:08:09;;;;;;;6.30;3.45;;;;;;;13.47;55.85;101171.16;5088276;28;20036;-47
2022/05/23 04:10:35;;;;;;;5.20;3.42;;;;;;;13.49;55.84;101167.44;5084819;28;20056;-44
2022/05/23 04:13:02;;;;;;;5.03;3.65;;;;;;;13.52;55.93;101179.63;5075427;28;20032;-46
2022/05/23 04:15:31;;;;;;;8.50;3.90;;;;;;;13.53;55.94;101173.41;5081309;28;20036;-48
2022/05/23 04:17:57;;;;;;;4.60;3.33;;;;;;;13.53;55.67;101173.41;5076567;28;20032;-45
2022/05/23 04:20:23;;;;;;;5.68;3.47;;;;;;;13.53;55.83;101168.13;5084730;28;20032;-45
2022/05/23 04:22:48;;;;;;;6.43;3.35;;;;;;;13.54;56.14;101169.78;5077272;28;20158;-44
2022/05/23 04:25:14;;;;;;;5.15;3.47;;;;;;;13.53;56.04;101179.53;5073814;28;20450;-44
2022/05/23 04:27:39;;;;;;;5.25;3.28;;;;;;;13.53;56.15;101184.00;5074725;28;20034;-44
2022/05/23 04:30:08;;;;;;;5.53;3.80;;;;;;;13.56;56.24;101191.69;5083913;28;20042;-48
2022/05/23 04:35:20;;;;;;;17.02;7.93;;;;;;;13.59;56.38;101178.28;5083513;28;20039;-44
2022/05/23 04:37:50;;;;;;;25.05;10.20;;;;;;;13.64;56.18;101186.78;5084478;28;20188;-47
2022/05/23 04:40:23;;;;;;;14.70;6.67;;;;;;;13.67;56.32;101186.59;5075956;28;20081;-50
2022/05/23 04:42:49;;;;;;;144.65;50.17;;;;;;;13.69;56.25;101187.31;5071129;28;20035;-43
2022/05/23 04:45:15;;;;;;;56.40;26.05;;;;;;;13.75;56.32;101187.88;5084367;28;20054;-46
2022/05/23 04:50:25;;;;;;;82.72;27.80;;;;;;;13.82;56.17;101186.56;5086959;28;20505;-44
2022/05/23 04:52:52;;;;;;;79.25;18.75;;;;;;;13.84;56.16;101184.69;5090718;28;20075;-43
2022/05/23 04:55:19;;;;;;;61.42;23.80;;;;;;;13.85;56.36;101173.13;5086889;28;20488;-43
2022/05/23 04:57:45;;;;;;;341.30;109.25;;;;;;;13.89;56.32;101179.91;5083894;28;20031;-45
2022/05/23 05:00:14;;;;;;;115.80;33.58;;;;;;;13.93;56.33;101169.97;5092062;28;20115;-46
2022/05/23 05:02:40;;;;;;;70.60;20.80;;;;;;;13.96;56.35;101170.66;5091184;28;20500;-44
2022/05/23 05:05:07;;;;;;;7.22;3.40;;;;;;;14.00;56.36;101166.81;5091810;28;20027;-43
2022/05/23 05:07:32;;;;;;;4.90;3.30;;;;;;;14.03;56.60;101171.91;5096336;28;20080;-44
2022/05/23 05:09:58;;;;;;;10.75;3.75;;;;;;;14.08;56.34;101168.97;5084726;28;20394;-43
2022/05/23 05:12:23;;;;;;;7.47;3.63;;;;;;;14.13;56.60;101166.03;5094038;28;20429;-46
2022/05/23 05:14:49;;;;;;;8.70;3.20;;;;;;;14.16;56.43;101160.53;5098768;28;20107;-43
2022/05/23 05:17:14;;;;;;;8.35;4.20;;;;;;;14.20;56.74;101167.31;5097394;28;20560;-44
2022/05/23 05:19:40;;;;;;;8.88;3.88;;;;;;;14.25;56.72;101159.94;5086728;28;20105;-44
2022/05/23 05:22:05;;;;;;;6.38;4.25;;;;;;;14.29;56.69;101166.69;5080301;28;20024;-47
2022/05/23 05:24:33;;;;;;;6.22;3.90;;;;;;;14.33;56.68;101159.41;5085061;28;20031;-44
2022/05/23 05:27:00;;;;;;;5.13;3.38;;;;;;;14.36;56.70;101159.22;5086334;28;20441;-44
2022/05/23 05:29:26;;;;;;;4.57;2.85;;;;;;;14.41;56.56;101153.59;5092325;28;20020;-47
2022/05/23 05:32:02;;;;;;;13.10;4.90;;;;;;;14.43;56.82;101149.06;5091075;28;20027;-44
2022/05/23 05:34:36;;;;;;;44.20;8.73;;;;;;;14.46;56.59;101155.00;5084616;28;20492;-44
2022/05/23 05:37:10;;;;;;;11.68;3.50;;;;;;;14.50;56.79;101152.97;5079004;28;20028;-46
2022/05/23 05:39:38;;;;;;;4.07;2.60;;;;;;;14.52;56.59;101148.44;5083245;28;20028;-43
2022/05/23 05:42:18;;;;;;;5.82;2.78;;;;;;;14.55;56.77;101150.88;5090344;28;20051;-45
2022/05/23 05:44:48;;;;;;;10.60;6.45;;;;;;;14.59;56.66;101141.78;5083756;28;20106;-43
2022/05/23 05:47:19;;;;;;;560.90;76.10;;;;;;;14.62;56.40;101141.53;5088707;28;20047;-43
2022/05/23 05:49:48;;;;;;;88.15;9.75;;;;;;;14.68;56.37;101136.81;5085518;28;20024;-44
2022/05/23 05:52:18;;;;;;;8.30;4.10;;;;;;;14.72;56.40;101141.78;5084173;28;20051;-43
2022/05/23 05:54:43;;;;;;;12.70;6.30;;;;;;;14.77;56.42;101134.38;5085208;28;20068;-44
2022/05/23 05:57:11;;;;;;;4.85;3.50;;;;;;;14.83;56.63;101134.88;5086312;28;20483;-50
2022/05/23 05:59:37;;;;;;;6.95;4.65;;;;;;;14.86;56.43;101132.03;5082916;28;20030;-44
2022/05/23 06:02:03;;;;;;;7.50;3.78;;;;;;;14.92;56.69;101128.97;5090851;28;20020;-43
2022/05/23 06:04:29;;;;;;;8.13;3.60;;;;;;;14.99;56.77;101124.09;5088270;28;20106;-43
2022/05/23 06:12:22;;;;;;;;;;;;;;;15.13;56.36;101112.50;5092964;28;20065;-43
2022/05/23 06:14:48;;;;;;;27.67;7.90;;;;;;;15.20;57.08;101113.75;5091851;28;20508;-43
2022/05/23 06:17:13;;;;;;;17.65;8.05;;;;;;;15.26;56.86;101112.47;5091596;28;20062;-43
2022/05/23 06:19:45;;;;;;;10.75;3.80;;;;;;;15.31;56.76;101100.56;5094394;28;20679;-43
2022/05/23 06:22:11;;;;;;;3.58;2.35;;;;;;;15.36;56.44;101108.19;5095295;28;20035;-43
2022/05/23 06:24:37;;;;;;;4.20;2.45;;;;;;;15.37;56.23;101104.56;5090764;28;20021;-43
2022/05/23 06:27:05;;;;;;;3.90;2.28;;;;;;;15.41;56.14;101105.22;5085502;28;20063;-43
2022/05/23 06:29:31;;;;;;;5.63;2.30;;;;;;;15.43;56.25;101104.16;5090350;28;20121;-43
2022/05/23 06:31:57;;;;;;;5.97;2.75;;;;;;;15.47;56.06;101110.06;5094222;28;20522;-45
2022/05/23 06:34:22;;;;;;;4.97;2.47;;;;;;;15.50;56.03;101104.53;5093043;28;20528;-46
2022/05/23 06:36:47;;;;;;;4.72;2.55;;;;;;;15.53;55.99;101091.91;5090107;28;20031;-47
2022/05/23 06:39:13;;;;;;;10.85;6.30;;;;;;;15.54;56.00;101090.94;5092012;28;20544;-47
2022/05/23 06:41:38;;;;;;;7.45;5.00;;;;;;;15.59;56.13;101087.13;5092561;28;20399;-46
2022/05/23 06:44:04;;;;;;;7.18;3.63;;;;;;;15.61;56.02;101082.56;5093451;28;20024;-45
2022/05/23 06:46:30;;;;;;;4.25;2.67;;;;;;;15.65;56.26;101082.19;5090610;28;20120;-48
2022/05/23 06:48:55;;;;;;;5.97;3.25;;;;;;;15.69;56.08;101088.13;5092151;28;20032;-45
2022/05/23 06:51:21;;;;;;;3.72;2.50;;;;;;;15.74;56.05;101082.47;5088943;28;20035;-46
2022/05/23 06:53:46;;;;;;;6.07;2.80;;;;;;;15.76;56.18;101078.75;5091338;28;20040;-47
2022/05/23 06:56:12;;;;;;;7.72;3.30;;;;;;;15.81;56.12;101087.19;5089579;28;20412;-49
2022/05/23 06:58:39;;;;;;;6.88;4.00;;;;;;;15.85;56.18;101079.91;5094754;28;20507;-45
2022/05/23 07:01:05;;;;;;;4.35;3.00;;;;;;;15.89;56.25;101084.00;5091264;28;20032;-46
2022/05/23 07:03:30;;;;;;;2.80;2.55;;;;;;;15.94;56.14;101083.69;5089767;28;20499;-46
2022/05/23 07:14:08;;;;;;;3.88;2.53;;;;;;;16.13;55.95;101062.72;5091826;28;20116;-46
2022/05/23 07:16:35;;;;;;;4.15;2.95;;;;;;;16.18;56.00;101061.53;5092429;28;20395;-47
2022/05/23 07:19:00;;;;;;;4.95;2.80;;;;;;;16.22;56.02;101058.53;5089141;28;20517;-45
2022/05/23 07:21:26;;;;;;;5.30;2.60;;;;;;;16.26;55.82;101048.53;5091751;28;20111;-47
2022/05/23 07:23:52;;;;;;;5.22;3.05;;;;;;;16.31;55.72;101051.66;5089740;28;20059;-47
2022/05/23 07:26:19;;;;;;;7.18;2.67;;;;;;;16.37;55.66;101045.03;5084757;28;20035;-47
2022/05/23 07:28:46;;;;;;;6.03;2.78;;;;;;;16.42;55.64;101038.41;5082866;28;20016;-47
2022/05/23 07:31:13;;;;;;;6.03;2.30;;;;;;;16.49;55.47;101035.28;5089781;28;20036;-47
2022/05/23 07:33:40;;;;;;;4.20;2.05;;;;;;;16.53;55.22;101039.38;5094864;28;20024;-46
2022/05/23 07:36:07;;;;;;;4.40;1.73;;;;;;;16.59;54.82;101033.56;5086575;28;20035;-47
2022/05/23 07:38:33;;;;;;;3.95;2.15;;;;;;;16.63;54.73;101036.84;5092344;28;20020;-47
2022/05/23 07:40:59;;;;;;;2.55;1.63;;;;;;;16.68;54.44;101038.19;5090737;28;20023;-47
2022/05/23 07:43:25;;;;;;;4.18;1.52;;;;;;;16.72;54.32;101033.47;5089933;28;20032;-47
2022/05/23 07:45:52;;;;;;;3.38;1.55;;;;;;;16.76;54.24;101025.13;5093315;28;20043;-45
2022/05/23 07:48:19;;;;;;;2.88;1.83;;;;;;;16.82;53.84;101021.13;5091087;28;20028;-47
2022/05/23 07:50:45;;;;;;;2.90;1.73;;;;;;;16.88;53.66;101017.13;5091094;28;20422;-47
2022/05/23 08:01:24;;;;;;;3.10;1.40;;;;;;;17.06;52.30;100999.72;5091701;28;20027;-47
2022/05/23 08:03:50;;;;;;;3.80;1.65;;;;;;;17.08;52.23;100998.75;5090516;28;20402;-47
2022/05/23 08:06:17;;;;;;;6.45;1.35;;;;;;;17.12;51.72;101005.53;5089965;28;20027;-47
2022/05/23 08:08:43;;;;;;;4.65;1.30;;;;;;;17.16;51.50;100999.00;5088271;28;20101;-47
2022/05/23 08:11:08;;;;;;;6.10;1.55;;;;;;;17.24;51.09;100990.41;5083355;28;20063;-49
2022/05/23 08:13:40;;;;;;;4.20;1.08;;;;;;;17.27;50.19;100990.97;5092036;28;20020;-46
2022/05/23 08:16:06;;;;;;;3.88;1.27;;;;;;;17.30;49.87;100990.72;5088928;28;20484;-46
2022/05/23 08:18:32;;;;;;;5.72;1.00;;;;;;;17.32;49.60;100987.94;5085711;28;20043;-45
2022/05/23 08:20:58;;;;;;;3.88;1.33;;;;;;;17.33;49.37;100990.44;5083611;28;20578;-47
2022/05/23 08:23:23;;;;;;;7.57;1.65;;;;;;;17.39;49.04;100985.59;5095878;28;20045;-47
2022/05/23 08:25:49;;;;;;;9.85;1.35;;;;;;;17.44;48.92;100986.09;5090694;28;20476;-46
2022/05/23 08:28:14;;;;;;;7.30;1.20;;;;;;;17.47;48.64;100975.19;5087764;28;20442;-48
2022/05/23 08:30:40;;;;;;;6.38;1.20;;;;;;;17.52;48.25;100978.28;5091589;28;20409;-47
2022/05/23 08:33:06;;;;;;;1.88;1.15;;;;;;;17.58;47.84;100971.59;5086983;28;20111;-48
2022/05/23 08:35:32;;;;;;;4.05;1.00;;;;;;;17.63;47.68;100967.59;5087168;28;20119;-47
2022/05/23 08:37:59;;;;;;;5.55;1.25;;;;;;;17.67;47.38;100955.72;5085265;28;20033;-47
2022/05/23 08:40:40;;;;;;;2.03;0.93;;;;;;;17.72;47.23;100965.13;5089375;28;20024;-46
2022/05/23 08:43:06;;;;;;;3.85;1.20;;;;;;;17.76;46.97;100955.94;5088268;28;20024;-45
2022/05/23 08:45:35;;;;;;;2.85;1.00;;;;;;;17.79;47.03;100960.97;5086693;28;20064;-48
2022/05/23 08:48:12;;;;;;;7.47;1.30;;;;;;;17.83;46.65;100949.09;5090235;28;20044;-47
2022/05/23 08:51:02;;;;;;;6.22;1.13;;;;;;;17.86;46.44;100951.50;5086924;28;20016;-45
2022/05/23 08:53:42;;;;;;;1.73;1.08;;;;;;;17.92;46.33;100958.94;5090597;28;20391;-45
2022/05/23 08:56:31;;;;;;;1.65;1.00;;;;;;;17.97;46.10;100943.47;5084584;28;20024;-45
2022/05/23 08:59:01;;;;;;;11.15;6.45;;;;;;;18.00;45.95;100939.69;5087850;28;20024;-49
2022/05/23 09:01:39;;;;;;;4.30;2.55;;;;;;;18.02;45.88;100934.22;5090272;28;20490;-47
2022/05/23 09:04:42;;;;;;;6.20;2.00;;;;;;;18.04;46.07;100934.94;5085300;28;20107;-46
2022/05/23 09:07:13;;;;;;;2.38;1.30;;;;;;;18.07;45.81;100942.69;5087573;28;20387;-45
2022/05/23 09:09:39;;;;;;;3.38;1.10;;;;;;;18.11;45.36;100946.75;5091320;28;20543;-45
2022/05/23 09:12:10;;;;;;;2.83;1.20;;;;;;;18.15;45.03;100940.19;5087312;28;20023;-48
2022/05/23 09:14:37;;;;;;;3.30;1.50;;;;;;;18.20;45.14;100937.97;5088042;28;20030;-47
2022/05/23 09:17:08;;;;;;;1.40;1.05;;;;;;;18.25;44.95;100930.41;5086508;28;20110;-48
2022/05/23 09:19:38;;;;;;;1.98;1.05;;;;;;;18.30;45.10;100926.50;5089210;28;20049;-48
2022/05/23 09:22:23;;;;;;;6.43;1.30;;;;;;;18.33;44.75;100927.06;5085408;28;20032;-47
2022/05/23 09:24:55;;;;;;;2.60;1.20;;;;;;;18.39;44.61;100925.69;5086083;28;20026;-46
2022/05/23 09:27:37;;;;;;;3.55;1.52;;;;;;;18.45;44.32;100919.00;5087223;28;20035;-47
2022/05/23 09:30:06;;;;;;;2.22;1.20;;;;;;;18.51;44.13;100907.78;5089945;28;20028;-47
2022/05/23 09:32:39;;;;;;;2.03;1.10;;;;;;;18.57;43.68;100896.56;5085904;28;20076;-45
2022/05/23 09:35:17;;;;;;;2.92;1.20;;;;;;;18.62;43.73;100893.50;5076767;28;20601;-47
2022/05/23 09:37:46;;;;;;;2.22;1.30;;;;;;;18.68;43.76;100892.97;5081361;28;20032;-44
2022/05/23 09:40:28;;;;;;;3.58;1.13;;;;;;;18.74;43.74;100889.72;5080883;28;20029;-45
2022/05/23 09:49:15;;;;;;;1.58;1.02;;;;;;;18.93;42.87;100888.06;5087003;28;20071;-48
2022/05/23 09:51:59;;;;;;;1.48;1.00;;;;;;;18.98;42.28;100876.03;5081438;28;20103;-44
2022/05/23 09:54:30;;;;;;;3.47;1.10;;;;;;;19.01;42.18;100880.22;5081648;28;20032;-43
2022/05/23 09:56:59;;;;;;;1.15;1.00;;;;;;;19.02;42.48;100879.25;5080613;28;20024;-49
2022/05/23 09:59:37;;;;;;;2.28;1.10;;;;;;;19.06;42.68;100869.16;5084312;28;20031;-44
2022/05/23 10:02:30;;;;;;;1.65;1.00;;;;;;;19.09;42.93;100864.38;5084885;28;20103;-44
2022/05/23 10:04:56;;;;;;;1.70;1.20;;;;;;;19.15;43.03;100860.28;5081065;28;20016;-48
2022/05/23 10:07:37;;;;;;;2.88;1.33;;;;;;;19.23;42.81;100859.59;5087568;28;20514;-44
2022/05/23 10:10:23;;;;;;;1.40;1.02;;;;;;;19.27;42.67;100848.47;5088868;28;20130;-46
2022/05/23 10:12:49;;;;;;;6.70;3.47;;;;;;;19.32;42.35;100848.03;5091908;28;20035;-47
2022/05/23 10:15:28;;;;;;;3.85;1.25;;;;;;;19.37;41.78;100848.47;5090152;28;20059;-43
2022/05/23 10:18:09;;;;;;;1.20;1.10;;;;;;;19.42;41.77;100846.22;5086608;28;20499;-44
2022/05/23 10:20:37;;;;;;;2.50;1.10;;;;;;;19.44;41.37;100844.22;5086667;28;20031;-46
2022/05/23 10:23:04;;;;;;;2.88;1.10;;;;;;;19.54;41.03;100843.38;5086077;28;20118;-44
2022/05/23 10:26:15;;;;;;;1.55;1.00;;;;;;;19.62;40.65;100835.47;5083417;28;20968;-44
2022/05/23 10:28:46;;;;;;;2.22;0.80;;;;;;;19.66;40.38;100828.84;5001338;28;20068;-49
2022/05/23 10:31:21;;;;;;;2.88;0.80;;;;;;;19.72;40.71;100824.75;5077834;28;20040;-44
2022/05/23 10:34:06;;;;;;;3.15;1.90;;;;;;;19.78;39.76;100832.19;5081398;28;20642;-43
2022/05/23 10:36:32;;;;;;;4.75;3.33;;;;;;;19.82;39.52;100828.22;5078475;28;20017;-48
2022/05/23 10:42:09;;;;;;;2.72;1.00;;;;;;;19.90;39.21;100816.81;5086919;28;20030;-44
2022/05/23 10:45:03;;;;;;;1.95;0.90;;;;;;;19.95;39.52;100815.44;5085093;28;20032;-44
2022/05/23 10:48:02;;;;;;;3.25;1.10;;;;;;;20.03;38.81;100806.66;5086337;28;20024;-45
2022/05/23 10:50:43;;;;;;;;;;;;;;;20.04;39.05;100805.66;5083332;28;20027;-46
2022/05/23 10:53:20;;;;;;;3.20;0.90;;;;;;;20.09;38.52;100800.72;5086522;28;19920;-45
2022/05/23 10:56:17;;;;;;;4.47;1.10;;;;;;;20.13;37.78;100795.91;5089570;28;20070;-44
2022/05/23 10:58:49;;;;;;;2.05;1.40;;;;;;;20.20;38.09;100797.00;5084860;28;20491;-43
2022/05/23 11:01:27;;;;;;;1.63;1.10;;;;;;;20.27;37.88;100791.88;5084279;28;20032;-45
2022/05/23 11:04:33;;;;;;;1.80;0.90;;;;;;;20.33;36.96;100791.28;5082246;28;20016;-44
2022/05/23 11:06:58;;;;;;;1.70;1.00;;;;;;;20.40;36.58;100791.53;5074431;28;20123;-50
2022/05/23 11:09:27;;;;;;;3.10;1.13;;;;;;;20.48;35.90;100793.44;5072144;28;20547;-43
2022/05/23 11:12:04;;;;;;;2.13;1.00;;;;;;;20.53;35.69;100786.63;5087418;28;20110;-46
2022/05/23 11:14:36;;;;;;;1.33;0.88;;;;;;;20.59;35.87;100779.84;5087882;28;20024;-47
2022/05/23 11:17:01;;;;;;;2.33;1.55;;;;;;;20.64;35.62;100774.88;5092106;28;20436;-51
2022/05/23 11:19:43;;;;;;;2.53;1.20;;;;;;;20.69;36.02;100785.94;5088736;28;20039;-43
2022/05/23 11:22:17;;;;;;;1.27;1.00;;;;;;;20.74;35.66;100769.41;5083655;28;20024;-47
2022/05/23 11:25:20;;;;;;;1.48;0.95;;;;;;;20.80;35.61;100757.28;5072855;28;20036;-47
2022/05/23 11:34:24;;;;;;;4.30;1.60;;;;;;;20.96;36.51;100749.41;5044794;28;20039;-43
2022/05/23 11:36:57;;;;;;;1.83;1.30;;;;;;;21.01;36.76;100740.94;5088723;28;20024;-43
2022/05/23 11:39:46;;;;;;;5.13;3.03;;;;;;;21.05;36.67;100744.13;5086971;28;20040;-44
2022/05/23 11:42:14;;;;;;;4.28;2.13;;;;;;;21.09;36.74;100745.50;5085869;28;20097;-43
2022/05/23 11:44:42;;;;;;;3.22;1.70;;;;;;;21.12;36.33;100737.13;5088404;28;20503;-43
2022/05/23 11:47:11;;;;;;;2.70;1.50;;;;;;;21.15;36.85;100732.31;5084896;28;20504;-44
2022/05/23 11:49:43;;;;;;;4.20;1.55;;;;;;;21.19;36.75;100729.28;5088342;28;20028;-43
2022/05/23 11:52:26;;;;;;;3.58;1.48;;;;;;;21.40;35.80;100715.56;5084649;28;22940;-45
2022/05/23 11:54:52;;;;;;;3.75;1.50;;;;;;;21.42;36.25;100718.88;5085255;28;20490;-43
2022/05/23 11:57:37;;;;;;;2.65;1.90;;;;;;;21.44;36.78;100701.69;5086249;28;20039;-43
2022/05/23 12:00:30;;;;;;;3.72;1.98;;;;;;;21.50;36.86;100697.50;5089871;28;20054;-43
2022/05/23 12:03:14;;;;;;;4.13;1.20;;;;;;;21.56;36.20;100691.50;5085810;28;20475;-44
2022/05/23 12:05:41;;;;;;;2.10;1.00;;;;;;;21.63;36.42;100694.38;5088213;28;20078;-44
2022/05/23 12:08:27;;;;;;;2.58;0.80;;;;;;;21.71;35.60;100704.28;5084760;28;20112;-42
2022/05/23 12:10:56;;;;;;;6.20;1.30;;;;;;;21.77;35.47;100698.28;5073523;28;20032;-42
2022/05/23 12:13:30;;;;;;;2.20;1.25;;;;;;;21.83;34.76;100686.94;5080659;28;20055;-43
2022/05/23 12:15:58;;;;;;;1.75;1.05;;;;;;;21.88;34.75;100684.59;5081750;28;20028;-44
2022/05/23 12:18:23;;;;;;;4.10;1.00;;;;;;;21.95;34.62;100683.94;5086847;28;20040;-44
2022/05/23 12:20:55;;;;;;;6.47;1.40;;;;;;;22.00;34.31;100671.72;5087344;28;20394;-42
2022/05/23 12:23:43;;;;;;;4.38;1.35;;;;;;;22.07;33.93;100663.84;5089217;28;20063;-43
2022/05/23 12:26:15;;;;;;;2.05;1.10;;;;;;;22.13;33.24;100670.38;5087434;28;20024;-43
2022/05/23 12:28:58;;;;;;;2.80;0.80;;;;;;;22.18;32.66;100662.69;5085026;28;20153;-43
2022/05/23 12:31:25;;;;;;;1.23;0.80;;;;;;;22.20;32.68;100653.47;5088726;28;20040;-43
2022/05/23 12:34:05;;;;;;;1.60;0.98;;;;;;;22.24;32.50;100659.34;5085709;28;20025;-42